Time;durP1;ratioP1;P1;durP2;ratioP2;P2;SDS_P1;SDS_P2;PMS_P1;PMS_P2;Temp;Humidity;BMP_temperature;BMP_pressure;BME280_temperature;BME280_humidity;BME280_pressure;Samples;Min_cycle;Max_cycle;Signal;HPM_P1;HPM_P2
2021/09/30 00:12:39;;;;;;;40.70;26.70;;;;;;;12.20;91.55;100971.88;21936262;78;99481;-82
2021/09/30 03:14:13;;;;;;;4.72;2.60;;;;;;;11.29;93.46;101133.86;21801887;79;99332;-82
2021/09/30 03:44:14;;;;;;;;;;;;;;;11.22;93.08;101159.91;21818317;79;99559;-83
2021/09/30 04:14:15;;;;;;;5.20;1.80;;;;;;;11.10;92.32;101221.23;21944548;78;85357;-82
2021/09/30 04:44:16;;;;;;;4.00;1.98;;;;;;;10.86;90.45;101249.04;22109190;78;99176;-83
2021/09/30 05:14:17;;;;;;;6.50;2.13;;;;;;;10.61;89.97;101275.17;22202216;78;99595;-83
2021/09/30 05:44:22;;;;;;;4.35;1.85;;;;;;;10.36;90.06;101302.67;22162154;78;99537;-81
2021/09/30 06:14:26;;;;;;;9.13;4.50;;;;;;;9.99;89.64;101309.50;22120793;78;99066;-80
2021/09/30 06:44:26;;;;;;;7.30;3.30;;;;;;;9.90;89.75;101335.78;22175832;78;113723;-81
2021/09/30 07:14:28;;;;;;;7.15;2.42;;;;;;;10.09;89.47;101366.79;22175360;78;99485;-80
2021/09/30 07:44:32;;;;;;;10.33;3.10;;;;;;;10.59;87.38;101398.62;22171499;78;99389;-84
2021/09/30 08:14:33;;;;;;;6.33;3.07;;;;;;;11.13;85.64;101421.05;22068167;78;99317;-85
2021/09/30 08:44:34;;;;;;;6.13;1.90;;;;;;;11.88;82.93;101429.34;21969348;78;99381;-87
2021/09/30 09:14:39;;;;;;;4.83;1.82;;;;;;;13.43;82.01;101437.20;22001825;78;132640;-84
2021/09/30 09:45:05;;;;;;;4.20;1.50;;;;;;;16.24;72.80;101450.77;22162637;78;99386;-85
2021/09/30 10:15:06;;;;;;;8.05;1.67;;;;;;;18.19;68.44;101460.45;22052771;77;99521;-86
2021/09/30 10:45:14;;;;;;;6.50;1.77;;;;;;;17.89;63.34;101466.32;21891749;79;99264;-85
2021/09/30 11:15:16;;;;;;;11.60;2.70;;;;;;;18.56;61.65;101480.84;21812616;78;99641;-85
2021/09/30 11:45:21;;;;;;;2.57;0.80;;;;;;;18.28;57.44;101491.49;21756672;79;99406;-82
2021/09/30 12:15:24;;;;;;;5.15;0.80;;;;;;;18.22;58.40;101478.36;21968656;78;99763;-85
2021/09/30 12:45:26;;;;;;;3.00;0.90;;;;;;;17.40;58.33;101501.98;22195926;78;123337;-83
2021/09/30 13:15:44;;;;;;;4.08;0.85;;;;;;;17.79;56.21;101488.83;22048584;78;101631;-84
2021/09/30 13:45:45;;;;;;;5.80;0.93;;;;;;;17.83;54.60;101482.62;21871181;78;99645;-84
2021/09/30 14:15:47;;;;;;;5.47;1.30;;;;;;;17.85;54.36;101478.06;21976559;78;104954;-85
2021/09/30 14:45:50;;;;;;;5.00;1.23;;;;;;;17.27;54.14;101485.42;22220978;78;99367;-85
2021/09/30 15:15:51;;;;;;;8.73;1.67;;;;;;;16.62;54.19;101479.33;22176878;78;99224;-86
2021/09/30 15:45:52;;;;;;;14.63;4.35;;;;;;;15.82;54.69;101488.05;22127208;78;99306;-85
2021/09/30 16:15:53;;;;;;;13.87;3.40;;;;;;;15.01;57.65;101503.77;22145494;78;99860;-85
2021/09/30 16:45:55;;;;;;;10.63;3.22;;;;;;;14.13;61.96;101520.69;22126551;78;99385;-85
2021/09/30 17:15:58;;;;;;;13.72;5.45;;;;;;;13.14;65.83;101554.80;22036228;78;99447;-84
2021/09/30 17:45:58;;;;;;;16.73;8.67;;;;;;;12.26;68.88;101578.41;21878632;78;99448;-85
2021/09/30 18:16:01;;;;;;;34.27;13.87;;;;;;;11.45;71.36;101589.99;21968144;78;99682;-85
2021/09/30 18:46:02;;;;;;;36.60;17.47;;;;;;;10.85;73.56;101616.48;22155544;78;100150;-84
2021/09/30 19:16:04;;;;;;;38.23;18.60;;;;;;;10.31;75.55;101629.00;22093936;78;100206;-86
2021/09/30 19:46:07;;;;;;;51.60;23.37;;;;;;;9.93;76.81;101658.19;21915463;79;99808;-83
2021/09/30 20:16:07;;;;;;;;;;;;;;;9.70;78.04;101658.39;21998834;78;99611;-84
2021/09/30 20:46:08;;;;;;;43.15;19.70;;;;;;;9.20;79.63;101663.30;22143594;78;86397;-85
2021/09/30 21:16:09;;;;;;;20.00;9.97;;;;;;;9.00;79.72;101657.84;22118233;78;99247;-85
2021/09/30 21:46:10;;;;;;;18.48;9.53;;;;;;;8.64;80.43;101657.64;22172545;78;99373;-85
2021/09/30 22:16:11;;;;;;;20.25;9.58;;;;;;;8.36;80.92;101657.36;22292687;78;99031;-85
2021/09/30 22:46:12;;;;;;;23.27;11.00;;;;;;;8.10;81.79;101673.13;22127612;78;99398;-84
2021/09/30 23:16:13;;;;;;;18.03;10.33;;;;;;;7.90;82.31;101678.55;22128657;78;99452;-83
2021/09/30 23:46:14;;;;;;;21.30;11.10;;;;;;;7.68;82.60;101678.78;22149842;78;99271;-83
